Time;durP1;ratioP1;P1;durP2;ratioP2;P2;SDS_P1;SDS_P2;PMS_P1;PMS_P2;Temp;Humidity;BMP_temperature;BMP_pressure;BME280_temperature;BME280_humidity;BME280_pressure;Samples;Min_cycle;Max_cycle;Signal;HPM_P1;HPM_P2
2021/03/04 04:03:46;;;;;;;15.13;8.58;;;;;;;-3.53;100.00;100738.93;1739282;78;21084;-62
2021/03/04 04:06:14;;;;;;;17.75;9.83;;;;;;;-3.47;100.00;100739.89;1735726;80;21180;-63
2021/03/04 04:08:44;;;;;;;16.42;8.25;;;;;;;-3.44;100.00;100733.36;1706595;82;20956;-62
2021/03/04 04:11:14;;;;;;;15.25;8.23;;;;;;;-3.41;100.00;100725.53;1706822;82;21971;-64
2021/03/04 04:13:43;;;;;;;17.60;8.73;;;;;;;-3.35;100.00;100724.39;1708322;82;21080;-63
2021/03/04 04:16:11;;;;;;;15.80;8.50;;;;;;;-3.25;100.00;100730.19;1692751;82;21468;-62
2021/03/04 04:18:41;;;;;;;20.52;9.75;;;;;;;-3.07;100.00;100728.37;1679058;83;21168;-63
2021/03/04 04:21:09;;;;;;;17.50;8.60;;;;;;;-2.82;100.00;100727.83;1729296;80;21212;-62
2021/03/04 04:23:38;;;;;;;18.12;10.38;;;;;;;-2.54;100.00;100724.98;1693187;82;21144;-62
2021/03/04 04:26:06;;;;;;;19.98;11.90;;;;;;;-2.22;100.00;100730.34;1684457;83;21589;-62
2021/03/04 04:28:35;;;;;;;20.05;11.00;;;;;;;-1.87;100.00;100712.57;1682615;83;22629;-62
2021/03/04 04:31:04;;;;;;;25.62;14.13;;;;;;;-1.50;100.00;100715.00;1692443;82;21421;-62
2021/03/04 04:33:32;;;;;;;18.87;11.15;;;;;;;-1.11;100.00;100712.16;1694880;82;21089;-62
2021/03/04 04:36:04;;;;;;;19.17;11.10;;;;;;;-0.71;100.00;100716.02;1691090;82;20954;-62
2021/03/04 04:38:32;;;;;;;18.67;9.35;;;;;;;-0.30;100.00;100707.72;1689458;82;21068;-68
2021/03/04 04:41:00;;;;;;;16.93;10.20;;;;;;;0.10;100.00;100702.47;1690457;82;22533;-64
2021/03/04 04:43:29;;;;;;;17.80;9.73;;;;;;;0.51;100.00;100701.36;1694054;82;21135;-65
2021/03/04 04:45:57;;;;;;;14.98;9.08;;;;;;;0.89;100.00;100696.55;1691625;82;21008;-63
2021/03/04 04:48:26;;;;;;;17.90;10.25;;;;;;;1.24;100.00;100693.17;1694613;82;21188;-67
2021/03/04 04:50:56;;;;;;;16.77;9.30;;;;;;;1.55;100.00;100684.83;1697434;82;21309;-64
2021/03/04 04:53:26;;;;;;;17.05;9.40;;;;;;;1.76;100.00;100682.42;1723920;80;22628;-66
2021/03/04 04:55:54;;;;;;;15.68;9.15;;;;;;;1.75;100.00;100682.55;1727981;80;21097;-63
2021/03/04 04:58:23;;;;;;;19.87;9.50;;;;;;;1.55;100.00;100680.16;1704769;82;21565;-68
2021/03/04 05:00:51;;;;;;;16.10;9.25;;;;;;;1.33;100.00;100680.49;1706844;82;21720;-65
2021/03/04 05:03:20;;;;;;;17.92;10.40;;;;;;;1.16;100.00;100675.29;1702535;82;21700;-65
2021/03/04 05:05:48;;;;;;;15.78;9.90;;;;;;;1.08;100.00;100673.75;1663715;85;21158;-65
2021/03/04 05:08:17;;;;;;;16.75;9.50;;;;;;;1.02;100.00;100672.90;1661000;85;22295;-70
2021/03/04 05:10:46;;;;;;;14.85;9.03;;;;;;;0.97;100.00;100671.95;1647970;86;21467;-65
2021/03/04 05:13:14;;;;;;;17.17;9.30;;;;;;;0.95;100.00;100676.87;1710815;82;21576;-67
2021/03/04 05:15:42;;;;;;;16.37;8.98;;;;;;;0.96;100.00;100672.08;1710178;83;21057;-65
2021/03/04 05:18:11;;;;;;;14.53;9.13;;;;;;;0.96;100.00;100665.66;1711049;82;21942;-65
2021/03/04 05:20:41;;;;;;;18.07;9.45;;;;;;;0.99;100.00;100670.58;1679014;83;21693;-66
2021/03/04 05:23:10;;;;;;;15.98;8.55;;;;;;;1.02;100.00;100670.33;1710666;82;21221;-65
2021/03/04 05:25:41;;;;;;;14.87;9.78;;;;;;;1.03;100.00;100670.71;1711195;83;21002;-62
2021/03/04 05:28:09;;;;;;;13.83;8.95;;;;;;;1.06;100.00;100673.06;1710609;82;21133;-68
2021/03/04 05:30:38;;;;;;;17.05;8.83;;;;;;;1.09;100.00;100661.73;1711366;83;22982;-63
2021/03/04 05:33:06;;;;;;;16.23;9.38;;;;;;;1.11;100.00;100663.73;1708757;82;21133;-63
2021/03/04 05:35:36;;;;;;;18.70;10.00;;;;;;;1.12;100.00;100664.89;1680716;83;21101;-64
2021/03/04 05:38:05;;;;;;;18.98;9.55;;;;;;;1.16;100.00;100655.22;1711688;82;21082;-68
2021/03/04 05:40:35;;;;;;;24.25;11.25;;;;;;;1.22;100.00;100648.36;1708222;83;21231;-66
2021/03/04 05:43:03;;;;;;;17.00;9.50;;;;;;;1.26;100.00;100654.09;1713298;83;22603;-64
2021/03/04 05:45:31;;;;;;;20.02;9.50;;;;;;;1.31;100.00;100648.14;1678207;83;21518;-65
2021/03/04 05:48:01;;;;;;;18.37;8.98;;;;;;;1.39;100.00;100648.38;1678128;83;21721;-63
2021/03/04 05:50:31;;;;;;;16.42;8.95;;;;;;;1.48;100.00;100643.86;1711293;82;21224;-65
2021/03/04 05:53:05;;;;;;;16.80;9.08;;;;;;;1.59;100.00;100651.59;1678291;83;21572;-66
2021/03/04 05:55:34;;;;;;;18.02;9.80;;;;;;;1.73;100.00;100645.85;1708729;82;21278;-65
2021/03/04 05:58:02;;;;;;;14.98;8.38;;;;;;;1.86;100.00;100642.24;1679219;83;21190;-68
2021/03/04 06:00:30;;;;;;;16.37;8.78;;;;;;;1.98;100.00;100641.77;1709807;82;21228;-67
2021/03/04 06:02:59;;;;;;;17.40;9.08;;;;;;;2.12;100.00;100631.69;1712078;83;21149;-67
2021/03/04 06:05:27;;;;;;;15.60;8.68;;;;;;;2.25;100.00;100627.70;1687530;82;21168;-65
2021/03/04 06:07:56;;;;;;;19.80;9.40;;;;;;;2.45;100.00;100624.38;1719238;82;21306;-67
2021/03/04 06:10:26;;;;;;;15.58;8.50;;;;;;;2.83;100.00;100624.35;1721946;81;22330;-65
2021/03/04 06:12:54;;;;;;;18.42;9.45;;;;;;;3.40;100.00;100623.09;1720101;81;21133;-64
2021/03/04 06:15:23;;;;;;;13.65;8.50;;;;;;;3.87;100.00;100614.43;1718165;81;21107;-65
2021/03/04 06:18:00;;;;;;;13.32;7.42;;;;;;;4.03;100.00;100610.88;1717512;81;21578;-67
2021/03/04 06:20:40;;;;;;;16.73;9.45;;;;;;;4.27;100.00;100607.92;1720876;81;21380;-64
2021/03/04 06:23:08;;;;;;;16.95;9.55;;;;;;;4.81;100.00;100600.61;1720144;81;21168;-65
2021/03/04 06:25:37;;;;;;;12.60;6.70;;;;;;;5.33;100.00;100595.91;1722069;81;21073;-66
2021/03/04 06:28:06;;;;;;;14.28;7.60;;;;;;;5.84;100.00;100590.75;1721265;81;22361;-65
2021/03/04 06:30:40;;;;;;;13.60;7.93;;;;;;;6.18;100.00;100575.95;1723657;81;21031;-64
2021/03/04 06:33:12;;;;;;;15.20;9.43;;;;;;;6.38;100.00;100581.31;1716060;81;21432;-63
2021/03/04 06:35:46;;;;;;;13.93;8.17;;;;;;;6.63;100.00;100583.65;1712233;81;21387;-65
2021/03/04 06:38:22;;;;;;;11.77;7.33;;;;;;;7.07;100.00;100574.08;1713684;81;21348;-64
2021/03/04 06:40:52;;;;;;;12.30;7.33;;;;;;;7.45;100.00;100569.42;1717400;81;21436;-64
2021/03/04 06:43:24;;;;;;;12.35;7.42;;;;;;;7.84;100.00;100570.26;1711811;82;21542;-64
2021/03/04 06:46:03;;;;;;;;;;;;;;;8.05;100.00;100559.43;1717085;81;21459;-64
2021/03/04 06:48:32;;;;;;;12.33;7.33;;;;;;;8.09;98.94;100554.24;1692484;82;20196;-65
2021/03/04 06:51:01;;;;;;;10.73;7.20;;;;;;;8.15;97.29;100554.91;1691505;82;21705;-65
2021/03/04 06:53:30;;;;;;;11.20;6.93;;;;;;;8.32;95.76;100550.55;1695002;82;22998;-65
2021/03/04 06:56:05;;;;;;;11.47;7.07;;;;;;;8.74;89.62;100537.91;1689587;83;21515;-65
2021/03/04 06:58:38;;;;;;;11.23;6.90;;;;;;;8.74;89.62;100537.91;1694588;83;21220;-67
2021/03/04 07:01:09;;;;;;;10.77;6.43;;;;;;;8.91;82.16;100534.33;1696620;82;21268;-66
2021/03/04 07:03:51;;;;;;;9.33;6.08;;;;;;;8.96;80.83;100521.63;1694648;82;21251;-66
2021/03/04 07:06:26;;;;;;;10.10;6.53;;;;;;;8.99;78.48;100525.70;1699627;83;21622;-66
2021/03/04 07:08:55;;;;;;;10.77;6.07;;;;;;;8.95;81.53;100518.72;1672704;84;21212;-65
2021/03/04 07:11:26;;;;;;;11.47;7.63;;;;;;;9.11;80.12;100513.95;1747309;80;21215;-65
2021/03/04 07:13:56;;;;;;;11.48;7.17;;;;;;;9.23;76.74;100510.01;1714529;81;21524;-65
2021/03/04 07:16:40;;;;;;;10.80;7.40;;;;;;;9.30;76.23;100504.95;1720912;81;21551;-66
2021/03/04 07:19:11;;;;;;;11.90;7.37;;;;;;;9.35;73.06;100492.24;1684366;83;21023;-67
2021/03/04 07:21:44;;;;;;;9.77;6.87;;;;;;;9.31;73.35;100488.36;1684847;84;21583;-66
2021/03/04 07:24:12;;;;;;;10.78;7.08;;;;;;;9.22;74.39;100494.09;1719528;81;21870;-65
2021/03/04 07:26:40;;;;;;;11.73;6.57;;;;;;;9.27;77.10;100484.47;1719387;81;21200;-66
2021/03/04 07:29:10;;;;;;;10.63;7.50;;;;;;;9.46;72.77;100481.45;1688631;83;21138;-66
2021/03/04 07:31:42;;;;;;;10.40;6.73;;;;;;;9.59;72.37;100480.13;1693709;84;21217;-67
2021/03/04 07:34:12;;;;;;;10.20;6.70;;;;;;;9.78;69.64;100467.97;1689512;84;21686;-66
2021/03/04 07:36:44;;;;;;;9.18;6.53;;;;;;;9.86;64.79;100466.61;1750208;80;22048;-66
2021/03/04 07:39:13;;;;;;;9.05;6.00;;;;;;;9.80;64.03;100473.80;1721118;81;21089;-67
2021/03/04 07:41:44;;;;;;;10.50;6.60;;;;;;;9.68;63.04;100469.97;1719179;81;21153;-68
2021/03/04 07:44:31;;;;;;;10.28;6.45;;;;;;;9.53;64.33;100454.27;1683758;83;21658;-66
2021/03/04 07:49:53;;;;;;;8.57;5.07;;;;;;;9.37;68.72;100450.47;1751957;80;21218;-66
2021/03/04 07:52:23;;;;;;;7.40;5.20;;;;;;;9.43;64.39;100428.48;1782931;79;21093;-65
2021/03/04 07:54:53;;;;;;;9.27;5.37;;;;;;;9.33;67.04;100446.09;1782357;79;21574;-66
2021/03/04 07:57:23;;;;;;;9.47;5.50;;;;;;;9.29;67.17;100433.11;1781398;78;22132;-65
2021/03/04 08:00:00;;;;;;;7.93;4.73;;;;;;;9.32;69.48;100429.33;1775200;79;21127;-66
2021/03/04 08:02:31;;;;;;;7.03;4.57;;;;;;;9.49;67.89;100429.08;1780068;78;21851;-69
2021/03/04 08:05:32;;;;;;;10.10;5.30;;;;;;;9.52;69.29;100425.34;1779892;78;21930;-66
2021/03/04 08:08:15;;;;;;;9.77;5.73;;;;;;;9.76;69.97;100417.85;1778361;78;21797;-68
2021/03/04 08:10:53;;;;;;;8.10;5.20;;;;;;;9.81;66.50;100416.86;1759285;79;20990;-66
2021/03/04 08:13:18;;;;;;;7.47;5.20;;;;;;;9.81;66.50;100416.86;1777405;78;21610;-66
2021/03/04 08:15:47;;;;;;;9.77;6.00;;;;;;;9.75;66.12;100407.13;1724874;79;21397;-67
2021/03/04 08:18:19;;;;;;;8.47;5.40;;;;;;;9.70;70.31;100425.08;1779084;78;22240;-66
2021/03/04 08:20:47;;;;;;;8.60;5.95;;;;;;;9.77;67.19;100411.66;1776912;79;22428;-66
2021/03/04 08:23:16;;;;;;;9.50;5.97;;;;;;;9.80;66.26;100401.39;1779750;79;21153;-67
2021/03/04 08:25:44;;;;;;;10.83;7.00;;;;;;;9.81;62.87;100405.14;1774107;78;21455;-67
2021/03/04 08:28:27;;;;;;;10.37;6.77;;;;;;;9.71;64.26;100404.56;1784183;79;21868;-66
2021/03/04 08:30:55;;;;;;;9.50;6.73;;;;;;;9.62;67.41;100389.50;1780253;78;21665;-66
2021/03/04 08:33:25;;;;;;;10.03;6.60;;;;;;;9.59;67.65;100376.02;1781422;78;21139;-68
2021/03/04 08:35:55;;;;;;;11.27;7.03;;;;;;;9.67;68.32;100387.17;1780307;78;22156;-68
2021/03/04 08:38:23;;;;;;;12.87;8.03;;;;;;;9.67;68.32;100387.17;1783430;79;22006;-67
2021/03/04 08:40:54;;;;;;;8.63;6.50;;;;;;;9.81;68.08;100384.32;1777135;79;21820;-66
2021/03/04 08:43:27;;;;;;;12.37;7.65;;;;;;;9.81;68.08;100384.32;1781720;79;21231;-66
2021/03/04 08:46:00;;;;;;;11.17;7.40;;;;;;;9.84;69.18;100386.55;1780168;78;21097;-68
2021/03/04 08:48:28;;;;;;;11.27;7.03;;;;;;;9.82;70.10;100378.12;1773020;79;21835;-67
2021/03/04 08:51:03;;;;;;;14.47;8.63;;;;;;;9.95;70.16;100369.70;1763333;79;21861;-67
2021/03/04 08:53:31;;;;;;;10.67;7.43;;;;;;;9.95;70.16;100369.70;1764964;79;21550;-68
2021/03/04 08:56:02;;;;;;;12.53;7.97;;;;;;;9.98;68.23;100371.47;1761775;79;22620;-68
2021/03/04 08:58:35;;;;;;;10.25;7.08;;;;;;;9.90;69.38;100367.63;1764090;79;21854;-67
2021/03/04 09:01:04;;;;;;;11.93;7.90;;;;;;;9.72;69.59;100367.13;1761587;79;21571;-67
2021/03/04 09:03:37;;;;;;;11.90;8.53;;;;;;;9.40;73.55;100370.28;1768500;80;21744;-67
2021/03/04 09:06:10;;;;;;;11.85;8.28;;;;;;;9.32;81.96;100360.39;1763320;79;22123;-67
2021/03/04 09:08:48;;;;;;;13.40;9.23;;;;;;;9.74;84.19;100355.56;1762879;79;21045;-67
2021/03/04 09:11:34;;;;;;;13.17;8.60;;;;;;;9.74;84.19;100355.56;1771322;79;21967;-68
2021/03/04 09:14:07;;;;;;;13.47;8.60;;;;;;;9.86;79.71;100355.14;1761674;79;22058;-67
2021/03/04 09:16:44;;;;;;;16.03;9.83;;;;;;;9.76;79.79;100344.96;1772680;79;21610;-67
2021/03/04 09:19:16;;;;;;;18.70;12.00;;;;;;;9.69;81.07;100347.95;1768688;80;22842;-66
2021/03/04 09:21:44;;;;;;;27.27;17.73;;;;;;;9.71;86.03;100348.59;1767206;79;21491;-66
2021/03/04 09:24:14;;;;;;;17.17;11.17;;;;;;;9.77;80.38;100340.56;1762928;79;21404;-66
2021/03/04 09:26:43;;;;;;;13.33;9.27;;;;;;;9.66;78.97;100337.88;1763743;79;21708;-67
2021/03/04 09:29:11;;;;;;;14.30;10.20;;;;;;;9.46;78.97;100329.73;1775108;79;21905;-66
2021/03/04 09:31:53;;;;;;;12.63;9.20;;;;;;;9.17;85.52;100331.73;1770854;79;22113;-66
2021/03/04 09:34:38;;;;;;;15.93;10.00;;;;;;;8.91;90.38;100317.25;1767888;79;21458;-66
2021/03/04 09:37:09;;;;;;;17.43;10.30;;;;;;;8.68;95.65;100330.69;1758125;79;21326;-66
2021/03/04 09:39:44;;;;;;;16.95;10.28;;;;;;;8.49;100.00;100332.69;1758152;79;21421;-65
2021/03/04 09:42:18;;;;;;;12.60;8.70;;;;;;;8.51;100.00;100319.03;1761396;79;21211;-68
2021/03/04 09:44:53;;;;;;;12.20;8.90;;;;;;;8.60;100.00;100311.20;1768802;79;22111;-63
2021/03/04 09:47:30;;;;;;;12.00;7.73;;;;;;;8.71;100.00;100310.36;1761357;79;21704;-63
2021/03/04 09:50:00;;;;;;;13.97;8.83;;;;;;;9.08;100.00;100306.75;1736476;80;21217;-63
2021/03/04 09:52:32;;;;;;;12.20;8.40;;;;;;;9.54;98.82;100300.25;1741260;80;21457;-64
2021/03/04 09:55:15;;;;;;;11.10;7.73;;;;;;;9.75;97.80;100293.39;1740141;80;21357;-63
2021/03/04 09:57:44;;;;;;;13.23;7.73;;;;;;;9.90;94.46;100280.41;1736227;82;22278;-62
2021/03/04 10:00:19;;;;;;;10.67;6.93;;;;;;;9.85;86.80;100284.52;1733194;80;21952;-62
2021/03/04 10:02:48;;;;;;;11.50;7.70;;;;;;;9.58;84.29;100266.38;1738103;81;21449;-63
2021/03/04 10:05:23;;;;;;;11.53;7.43;;;;;;;9.26;87.76;100278.67;1739527;80;21851;-64
2021/03/04 10:07:56;;;;;;;22.80;18.87;;;;;;;9.00;93.61;100271.20;1742878;80;21279;-63
2021/03/04 10:10:22;;;;;;;14.58;9.83;;;;;;;9.00;97.05;100268.11;1744836;81;21340;-64
2021/03/04 10:12:53;;;;;;;11.40;7.77;;;;;;;9.14;95.89;100256.16;1742428;80;21168;-62
2021/03/04 10:15:32;;;;;;;11.45;7.70;;;;;;;9.24;95.39;100249.41;1740760;80;21434;-64
2021/03/04 10:18:05;;;;;;;11.43;7.50;;;;;;;9.40;95.09;100236.30;1739440;80;21002;-66
2021/03/04 10:20:33;;;;;;;13.63;8.50;;;;;;;9.72;95.29;100239.58;1733786;80;21379;-65
2021/03/04 10:23:05;;;;;;;15.57;8.30;;;;;;;9.87;88.60;100228.69;1744474;81;22599;-66
2021/03/04 10:25:33;;;;;;;11.23;7.40;;;;;;;9.81;93.35;100237.23;1744460;80;21385;-66
2021/03/04 10:28:03;;;;;;;12.87;8.73;;;;;;;9.94;92.11;100211.36;1743083;81;21219;-63
2021/03/04 10:30:32;;;;;;;11.93;7.80;;;;;;;10.17;93.54;100215.66;1745606;80;21385;-67
2021/03/04 10:33:01;;;;;;;12.53;7.77;;;;;;;10.42;89.33;100197.47;1741191;80;21437;-68
2021/03/04 10:35:30;;;;;;;11.13;6.57;;;;;;;10.42;81.72;100188.34;1742155;80;21510;-67
2021/03/04 10:37:59;;;;;;;9.63;6.30;;;;;;;10.42;81.72;100188.34;1746149;80;21966;-67
2021/03/04 10:40:27;;;;;;;13.00;7.03;;;;;;;10.28;83.47;100189.18;1740713;80;21536;-65
2021/03/04 10:42:57;;;;;;;10.30;6.97;;;;;;;10.31;82.77;100173.19;1739961;81;21454;-67
2021/03/04 10:45:27;;;;;;;10.85;6.87;;;;;;;10.45;84.22;100176.27;1736245;81;21343;-66
2021/03/04 10:47:56;;;;;;;11.83;7.43;;;;;;;10.81;77.92;100167.59;1735135;81;21207;-66
2021/03/04 10:50:27;;;;;;;12.13;8.13;;;;;;;10.81;77.92;100167.59;1763561;79;21484;-68
2021/03/04 10:52:55;;;;;;;11.70;8.37;;;;;;;10.81;72.50;100154.55;1770493;79;21469;-67
2021/03/04 10:55:28;;;;;;;14.50;10.40;;;;;;;10.81;72.50;100154.55;1762478;79;22011;-63
2021/03/04 10:57:56;;;;;;;13.97;10.00;;;;;;;10.86;77.09;100161.80;1768611;79;21629;-65
2021/03/04 11:00:24;;;;;;;13.60;8.10;;;;;;;10.93;78.63;100146.52;1763605;79;21429;-66
2021/03/04 11:02:54;;;;;;;10.60;6.80;;;;;;;10.92;71.62;100141.51;1765562;79;37637;-64
2021/03/04 11:05:24;;;;;;;11.33;7.20;;;;;;;10.90;71.28;100126.03;1771486;79;21602;-63
2021/03/04 11:07:52;;;;;;;10.90;6.93;;;;;;;10.82;74.84;100136.59;1764692;79;21510;-63
2021/03/04 11:10:21;;;;;;;11.80;7.40;;;;;;;10.78;72.55;100121.02;1768009;79;21629;-66
2021/03/04 11:12:50;;;;;;;10.30;6.13;;;;;;;10.73;72.52;100112.97;1800573;77;21600;-63
2021/03/04 11:15:19;;;;;;;10.13;7.17;;;;;;;10.73;72.52;100112.97;1778047;78;21529;-63
2021/03/04 11:17:50;;;;;;;12.03;6.63;;;;;;;10.69;72.91;100109.13;1768611;79;21579;-62
2021/03/04 11:20:21;;;;;;;10.32;6.65;;;;;;;10.69;72.91;100109.13;1799409;78;22026;-63
2021/03/04 11:22:50;;;;;;;10.40;6.40;;;;;;;10.63;74.91;100075.97;1769996;79;21208;-61
2021/03/04 11:25:20;;;;;;;12.20;7.23;;;;;;;10.58;74.98;100100.50;1792467;79;21373;-63
2021/03/04 11:27:49;;;;;;;10.37;6.70;;;;;;;10.57;78.82;100094.95;1786970;79;21322;-64
2021/03/04 11:30:19;;;;;;;12.00;6.77;;;;;;;10.57;76.66;100081.45;1804398;78;21346;-66
2021/03/04 11:32:47;;;;;;;10.60;7.03;;;;;;;10.69;78.20;100084.36;1805472;78;21533;-64
2021/03/04 11:35:17;;;;;;;11.07;7.10;;;;;;;10.69;78.20;100084.36;1791117;79;21919;-64
2021/03/04 11:37:45;;;;;;;11.27;7.57;;;;;;;10.52;74.43;100098.63;1759415;80;21569;-63
2021/03/04 11:40:35;;;;;;;12.57;6.73;;;;;;;10.52;74.43;100098.63;1775007;79;21663;-64
2021/03/04 11:43:04;;;;;;;12.57;7.77;;;;;;;10.25;72.43;100082.73;1729835;81;21945;-63
2021/03/04 11:45:32;;;;;;;12.77;8.10;;;;;;;10.01;74.60;100079.95;1739373;80;21768;-61
2021/03/04 11:48:02;;;;;;;12.73;8.07;;;;;;;9.97;77.41;100087.82;1726226;80;21248;-61
2021/03/04 11:50:31;;;;;;;12.18;7.92;;;;;;;10.03;76.40;100079.75;1729378;80;21471;-63
2021/03/04 11:53:00;;;;;;;14.17;9.07;;;;;;;10.07;76.18;100071.88;1731980;80;21011;-64
2021/03/04 11:55:30;;;;;;;13.53;8.18;;;;;;;10.05;79.87;100066.88;1720946;80;21509;-63
2021/03/04 11:57:59;;;;;;;13.53;9.40;;;;;;;10.08;80.13;100070.91;1740593;80;21216;-63
2021/03/04 12:00:27;;;;;;;13.97;9.03;;;;;;;10.12;81.36;100075.56;1730114;81;21457;-65
2021/03/04 12:02:56;;;;;;;13.10;8.70;;;;;;;10.12;83.27;100081.27;1695982;82;22231;-63
2021/03/04 12:05:25;;;;;;;15.00;9.00;;;;;;;10.13;86.47;100072.46;1735948;80;21891;-64
2021/03/04 12:07:53;;;;;;;15.53;9.80;;;;;;;10.12;85.60;100064.34;1745449;80;21898;-64
2021/03/04 12:10:21;;;;;;;13.33;8.50;;;;;;;10.08;86.97;100063.10;1742027;80;21378;-64
2021/03/04 12:12:49;;;;;;;13.40;8.37;;;;;;;10.02;85.85;100067.23;1730685;80;22091;-64
2021/03/04 12:15:18;;;;;;;14.30;8.63;;;;;;;9.95;89.24;100068.95;1730159;81;22763;-64
2021/03/04 12:17:46;;;;;;;14.07;9.47;;;;;;;9.91;90.11;100072.42;1739851;81;21408;-64
2021/03/04 12:20:16;;;;;;;14.93;10.13;;;;;;;9.89;90.65;100057.48;1731351;81;21362;-64
2021/03/04 12:22:45;;;;;;;14.50;9.93;;;;;;;9.87;93.71;100045.64;1734505;81;21432;-63
2021/03/04 12:25:14;;;;;;;13.93;9.80;;;;;;;9.90;97.05;100053.89;1731171;80;21409;-63
2021/03/04 12:27:43;;;;;;;17.60;11.30;;;;;;;9.96;97.88;100059.67;1733462;80;21441;-66
2021/03/04 12:30:16;;;;;;;15.20;10.53;;;;;;;9.91;96.75;100048.98;1739074;80;21842;-65
2021/03/04 12:32:44;;;;;;;21.65;12.10;;;;;;;9.78;99.23;100041.54;1730878;81;21409;-63
2021/03/04 12:35:14;;;;;;;16.63;10.90;;;;;;;9.73;100.00;100052.47;1724251;81;21555;-63
2021/03/04 12:37:42;;;;;;;16.90;10.40;;;;;;;9.81;100.00;100043.28;1738371;80;21183;-63
2021/03/04 12:40:12;;;;;;;16.13;10.43;;;;;;;9.88;100.00;100043.34;1739573;80;23011;-63
2021/03/04 12:42:40;;;;;;;23.27;15.43;;;;;;;9.89;100.00;100023.64;1744981;80;21419;-63
2021/03/04 12:45:10;;;;;;;29.47;23.93;;;;;;;9.83;100.00;100026.97;1742680;80;21980;-63
2021/03/04 12:47:39;;;;;;;17.37;13.83;;;;;;;9.72;100.00;100020.94;1759795;80;21440;-64
2021/03/04 12:50:10;;;;;;;18.30;12.00;;;;;;;9.67;100.00;100014.19;1769129;80;21482;-61
2021/03/04 12:52:39;;;;;;;20.63;13.30;;;;;;;9.69;100.00;100009.58;1768724;79;21449;-63
2021/03/04 12:55:09;;;;;;;18.10;10.70;;;;;;;9.65;100.00;100007.84;1753000;79;21325;-62
2021/03/04 12:57:38;;;;;;;30.07;14.60;;;;;;;9.62;100.00;99986.11;1758677;80;21486;-61
2021/03/04 13:00:08;;;;;;;18.13;10.93;;;;;;;9.64;100.00;99993.72;1739661;81;21489;-64
2021/03/04 13:02:36;;;;;;;16.93;11.37;;;;;;;9.64;100.00;99987.22;1755450;79;21467;-64
2021/03/04 13:05:06;;;;;;;15.80;9.53;;;;;;;9.63;100.00;99995.52;1761393;80;23127;-63
2021/03/04 13:07:34;;;;;;;24.87;14.73;;;;;;;9.66;100.00;99987.82;1755537;80;21328;-65
2021/03/04 13:10:04;;;;;;;28.70;16.60;;;;;;;9.69;100.00;99984.36;1736134;81;21453;-62
2021/03/04 13:12:34;;;;;;;23.63;13.50;;;;;;;9.68;100.00;99981.45;1745424;80;21328;-63
2021/03/04 13:15:24;;;;;;;30.17;18.17;;;;;;;9.60;100.00;99970.36;1748845;80;21402;-64
2021/03/04 13:17:53;;;;;;;17.90;11.87;;;;;;;9.51;100.00;99968.37;1733095;82;21500;-62
2021/03/04 13:20:21;;;;;;;24.03;16.30;;;;;;;9.46;100.00;99958.48;1711278;82;21477;-63
2021/03/04 13:22:52;;;;;;;14.87;10.03;;;;;;;9.45;100.00;99949.58;1739354;81;21484;-63
2021/03/04 13:25:20;;;;;;;14.50;9.40;;;;;;;9.41;100.00;99955.64;1732340;81;22803;-63
2021/03/04 13:27:50;;;;;;;16.07;9.30;;;;;;;9.34;100.00;99953.45;1735747;81;21780;-62
2021/03/04 13:30:19;;;;;;;16.97;9.63;;;;;;;9.30;100.00;99953.50;1733917;81;21433;-63
2021/03/04 13:32:48;;;;;;;12.17;8.90;;;;;;;9.21;100.00;99945.00;1736234;82;21391;-63
2021/03/04 13:35:18;;;;;;;15.00;8.97;;;;;;;9.14;100.00;99941.51;1731795;81;21337;-66
2021/03/04 13:37:46;;;;;;;15.30;10.03;;;;;;;9.09;100.00;99939.95;1736783;82;21443;-63
2021/03/04 13:40:15;;;;;;;14.33;9.30;;;;;;;9.07;100.00;99938.02;1736655;82;21378;-63
2021/03/04 13:42:43;;;;;;;15.40;9.63;;;;;;;9.10;100.00;99925.16;1735924;82;21450;-63
2021/03/04 13:45:12;;;;;;;13.27;7.43;;;;;;;9.05;100.00;99931.38;1733696;81;21478;-65
2021/03/04 13:47:41;;;;;;;12.40;8.13;;;;;;;8.98;100.00;99930.81;1712626;82;21358;-62
2021/03/04 13:50:11;;;;;;;13.83;8.80;;;;;;;8.85;100.00;99926.73;1709124;82;21374;-63
2021/03/04 13:52:39;;;;;;;12.07;8.27;;;;;;;8.72;100.00;99927.86;1709964;82;21275;-64
2021/03/04 13:55:09;;;;;;;13.17;8.07;;;;;;;8.63;100.00;99918.03;1705103;83;21734;-67
2021/03/04 13:57:39;;;;;;;15.55;9.18;;;;;;;8.56;100.00;99924.11;1706254;83;21571;-62
2021/03/04 14:00:09;;;;;;;14.23;9.23;;;;;;;8.48;100.00;99925.00;1707280;83;21662;-62
2021/03/04 14:02:37;;;;;;;14.83;9.50;;;;;;;8.43;100.00;99930.73;1707939;83;21473;-63
2021/03/04 14:05:07;;;;;;;15.97;9.67;;;;;;;8.38;100.00;99918.78;1707559;83;21260;-66
2021/03/04 14:07:35;;;;;;;16.03;10.73;;;;;;;8.31;100.00;99923.52;1708989;83;21505;-63
2021/03/04 14:10:06;;;;;;;17.03;10.00;;;;;;;8.23;100.00;99919.22;1705228;82;21215;-64
2021/03/04 14:12:36;;;;;;;18.17;11.27;;;;;;;8.13;100.00;99921.23;1708162;83;21453;-63
2021/03/04 14:15:06;;;;;;;18.90;11.60;;;;;;;8.01;100.00;99919.55;1705364;82;21237;-63
2021/03/04 14:17:34;;;;;;;24.53;15.37;;;;;;;7.89;100.00;99919.16;1711451;82;21452;-62
2021/03/04 14:20:26;;;;;;;21.37;13.53;;;;;;;7.78;100.00;99916.97;1713654;82;21526;-62
2021/03/04 14:22:55;;;;;;;21.50;13.87;;;;;;;7.64;100.00;99920.30;1716041;82;21920;-62
2021/03/04 14:25:24;;;;;;;20.88;14.03;;;;;;;7.45;100.00;99920.25;1740380;81;21336;-63
2021/03/04 14:27:54;;;;;;;27.10;15.80;;;;;;;7.29;100.00;99924.55;1731796;82;21011;-62
2021/03/04 14:30:23;;;;;;;25.10;15.08;;;;;;;7.14;100.00;99920.25;1677789;82;21136;-64
2021/03/04 14:32:52;;;;;;;21.93;14.07;;;;;;;7.00;100.00;99912.68;1712648;83;21764;-64
2021/03/04 14:35:20;;;;;;;22.55;14.58;;;;;;;6.87;100.00;99917.60;1737267;82;21002;-62
2021/03/04 14:37:49;;;;;;;21.23;14.43;;;;;;;6.75;100.00;99912.78;1713103;82;21219;-63
2021/03/04 14:40:18;;;;;;;21.25;14.00;;;;;;;6.65;100.00;99910.85;1707279;83;21642;-64
2021/03/04 14:42:46;;;;;;;23.00;15.50;;;;;;;6.54;100.00;99904.23;1731230;82;22096;-64
2021/03/04 14:45:16;;;;;;;25.57;15.20;;;;;;;6.43;100.00;99907.17;1740759;82;21937;-63
2021/03/04 14:47:45;;;;;;;19.80;14.18;;;;;;;6.33;100.00;99906.56;1733091;82;21219;-62
2021/03/04 14:50:15;;;;;;;21.17;14.78;;;;;;;6.25;100.00;99919.48;1737456;82;21207;-63
2021/03/04 14:52:45;;;;;;;24.47;15.40;;;;;;;6.16;100.00;99904.95;1725710;81;22354;-61
2021/03/04 14:55:17;;;;;;;20.35;14.45;;;;;;;6.09;100.00;99909.95;1722856;81;21598;-61
2021/03/04 14:57:47;;;;;;;28.35;16.57;;;;;;;6.01;100.00;99901.71;1707437;82;21398;-62
2021/03/04 15:00:18;;;;;;;23.40;15.75;;;;;;;5.93;100.00;99912.06;1701010;82;21782;-61
2021/03/04 15:02:52;;;;;;;24.67;16.55;;;;;;;5.84;100.00;99890.53;1702404;82;21239;-61
2021/03/04 15:05:21;;;;;;;24.55;16.67;;;;;;;5.80;100.00;99903.95;1743025;80;21177;-61
2021/03/04 15:07:54;;;;;;;27.48;17.20;;;;;;;5.75;100.00;99901.02;1732413;80;21217;-63
2021/03/04 15:10:23;;;;;;;24.18;16.55;;;;;;;5.70;100.00;99900.70;1739392;80;22682;-63
2021/03/04 15:12:53;;;;;;;23.02;15.20;;;;;;;5.67;100.00;99902.31;1708543;81;21156;-63
2021/03/04 15:15:21;;;;;;;23.27;16.00;;;;;;;5.63;100.00;99904.89;1739341;80;21081;-63
2021/03/04 15:17:51;;;;;;;24.23;17.20;;;;;;;5.57;100.00;99900.70;1710351;82;21189;-64
2021/03/04 15:20:21;;;;;;;22.02;14.13;;;;;;;5.53;100.00;99890.34;1738210;80;21207;-63
2021/03/04 15:22:53;;;;;;;23.62;16.02;;;;;;;5.49;100.00;99898.09;1711659;82;22147;-63
2021/03/04 15:25:22;;;;;;;21.85;14.40;;;;;;;5.44;100.00;99893.06;1686548;84;21220;-64
2021/03/04 15:27:51;;;;;;;23.70;14.47;;;;;;;5.39;100.00;99892.25;1677228;85;21041;-66
2021/03/04 15:30:31;;;;;;;20.52;13.53;;;;;;;5.36;100.00;99888.69;1672124;85;21658;-63
2021/03/04 15:33:00;;;;;;;25.62;14.10;;;;;;;5.31;100.00;99879.31;1700336;83;22315;-63
2021/03/04 15:35:31;;;;;;;20.88;14.05;;;;;;;5.28;100.00;99880.91;1702324;83;22031;-61
2021/03/04 15:38:01;;;;;;;20.10;13.30;;;;;;;5.25;100.00;99874.77;1702630;82;21797;-61
2021/03/04 15:40:30;;;;;;;18.67;12.35;;;;;;;5.20;100.00;99877.02;1699921;83;21675;-62